createdAt,value
2023-02-11T00:07:57.354Z,1003.00
2023-02-11T00:08:57.340Z,1002.00
2023-02-11T00:09:57.333Z,1002.00
2023-02-11T00:10:57.322Z,997.00
2023-02-11T00:11:57.319Z,999.00
2023-02-11T00:12:57.321Z,997.00
2023-02-11T00:13:57.321Z,999.00
2023-02-11T00:14:57.304Z,997.00
2023-02-11T00:15:57.289Z,994.00
2023-02-11T00:16:57.346Z,993.00
2023-02-11T00:17:57.297Z,992.00
2023-02-11T00:18:57.274Z,990.00
2023-02-11T00:19:57.266Z,993.00
2023-02-11T00:20:57.256Z,993.00
2023-02-11T00:21:57.262Z,992.00
2023-02-11T00:22:57.233Z,989.00
2023-02-11T00:23:57.247Z,988.00
2023-02-11T00:24:57.237Z,986.00
2023-02-11T00:25:57.218Z,985.00
2023-02-11T00:26:57.223Z,985.00
2023-02-11T00:27:57.264Z,983.00
2023-02-11T00:28:57.239Z,982.00
2023-02-11T00:29:57.210Z,981.00
2023-02-11T00:30:57.293Z,977.00
2023-02-11T00:31:57.339Z,976.00
2023-02-11T00:32:57.238Z,975.00
2023-02-11T00:33:57.201Z,974.00
2023-02-11T00:34:57.191Z,974.00
2023-02-11T00:35:57.183Z,975.00
2023-02-11T00:36:57.172Z,974.00
2023-02-11T00:37:57.177Z,974.00
2023-02-11T00:38:57.176Z,975.00
2023-02-11T00:39:57.160Z,973.00
2023-02-11T00:40:57.167Z,970.00
2023-02-11T00:41:57.151Z,969.00
2023-02-11T00:42:57.158Z,971.00
2023-02-11T00:43:57.154Z,968.00
2023-02-11T00:44:57.157Z,969.00
2023-02-11T00:45:57.150Z,963.00
2023-02-11T00:46:57.141Z,963.00
2023-02-11T00:47:57.129Z,961.00
2023-02-11T00:48:57.117Z,960.00
2023-02-11T00:49:57.123Z,959.00
2023-02-11T00:50:57.105Z,956.00
2023-02-11T00:51:57.106Z,958.00
2023-02-11T00:52:57.124Z,954.00
2023-02-11T00:53:57.092Z,955.00
2023-02-11T00:54:57.077Z,954.00
2023-02-11T00:55:57.077Z,953.00
2023-02-11T00:56:57.072Z,950.00
2023-02-11T00:57:57.071Z,952.00
2023-02-11T00:58:57.058Z,950.00
2023-02-11T00:59:57.049Z,950.00
2023-02-11T01:00:57.062Z,950.00
2023-02-11T01:01:57.039Z,947.00
2023-02-11T01:02:57.021Z,945.00
2023-02-11T01:03:57.018Z,945.00
2023-02-11T01:04:57.042Z,943.00
2023-02-11T01:05:57.015Z,939.00
2023-02-11T01:06:57.011Z,938.00
2023-02-11T01:07:57.110Z,935.00
2023-02-11T01:08:56.997Z,932.00
2023-02-11T01:09:56.989Z,930.00
2023-02-11T01:10:56.994Z,930.00
2023-02-11T01:11:56.980Z,929.00
2023-02-11T01:12:56.976Z,931.00
2023-02-11T01:13:56.981Z,928.00
2023-02-11T01:14:56.963Z,928.00
2023-02-11T01:15:57.005Z,931.00
2023-02-11T01:16:56.939Z,931.00
2023-02-11T01:17:56.961Z,931.00
2023-02-11T01:18:56.937Z,929.00
2023-02-11T01:19:56.913Z,928.00
2023-02-11T01:20:56.916Z,927.00
2023-02-11T01:21:56.895Z,923.00
2023-02-11T01:22:56.902Z,915.00
2023-02-11T01:23:56.897Z,915.00
2023-02-11T01:24:56.902Z,910.00
2023-02-11T01:25:56.884Z,908.00
2023-02-11T01:26:56.882Z,906.00
2023-02-11T01:27:56.947Z,904.00
2023-02-11T01:28:56.891Z,907.00
2023-02-11T01:29:56.878Z,907.00
2023-02-11T01:30:56.944Z,907.00
2023-02-11T01:31:56.873Z,904.00
2023-02-11T01:32:56.860Z,903.00
2023-02-11T01:33:56.869Z,900.00
2023-02-11T01:34:56.881Z,897.00
2023-02-11T01:35:56.857Z,893.00
2023-02-11T01:36:56.835Z,892.00
2023-02-11T01:37:56.825Z,890.00
2023-02-11T01:38:56.822Z,894.00
2023-02-11T01:39:56.813Z,894.00
2023-02-11T01:40:56.830Z,895.00
2023-02-11T01:41:56.814Z,896.00
2023-02-11T01:42:56.802Z,897.00
2023-02-11T01:43:56.801Z,896.00
2023-02-11T01:44:56.809Z,897.00
2023-02-11T01:45:56.806Z,896.00
2023-02-11T01:46:56.790Z,889.00
2023-02-11T01:47:56.784Z,890.00
2023-02-11T01:48:56.856Z,887.00
2023-02-11T02:02:56.738Z,867.00
2023-02-11T03:04:56.068Z,796.00
2023-02-11T03:05:56.063Z,794.00
2023-02-11T03:06:56.042Z,794.00
2023-02-11T03:07:56.038Z,796.00
2023-02-11T03:08:56.025Z,795.00
2023-02-11T03:09:56.020Z,792.00
2023-02-11T03:10:56.019Z,792.00
2023-02-11T03:11:56.003Z,795.00
2023-02-11T03:12:55.984Z,793.00
2023-02-11T03:13:55.976Z,790.00
2023-02-11T03:14:55.995Z,788.00
2023-02-11T03:15:56.006Z,785.00
2023-02-11T03:16:55.979Z,783.00
2023-02-11T03:17:55.988Z,780.00
2023-02-11T03:18:55.959Z,781.00
2023-02-11T03:19:55.957Z,780.00
2023-02-11T03:20:55.955Z,779.00
2023-02-11T03:21:55.961Z,781.00
2023-02-11T03:22:55.949Z,782.00
2023-02-11T03:23:55.953Z,779.00
2023-02-11T03:24:55.965Z,777.00
2023-02-11T03:25:55.940Z,778.00
2023-02-11T03:26:55.928Z,775.00
2023-02-11T03:27:55.966Z,773.00
2023-02-11T03:28:55.928Z,769.00
2023-02-11T03:29:55.930Z,768.00
2023-02-11T03:30:55.951Z,767.00
2023-02-11T03:31:55.946Z,767.00
2023-02-11T03:32:55.902Z,766.00
2023-02-11T03:33:55.904Z,764.00
2023-02-11T03:34:55.906Z,762.00
2023-02-11T03:35:55.880Z,759.00
2023-02-11T03:36:55.866Z,756.00
2023-02-11T03:37:55.883Z,754.00
2023-02-11T03:38:55.847Z,755.00
2023-02-11T03:39:55.869Z,756.00
2023-02-11T03:40:55.843Z,755.00
2023-02-11T03:41:55.847Z,756.00
2023-02-11T03:42:55.854Z,754.00
2023-02-11T03:43:55.845Z,750.00
2023-02-11T03:44:55.828Z,743.00
2023-02-11T03:45:55.872Z,741.00
2023-02-11T03:46:55.813Z,742.00
2023-02-11T03:47:55.810Z,743.00
2023-02-11T03:48:55.795Z,743.00
2023-02-11T03:49:55.799Z,742.00
2023-02-11T03:50:55.794Z,739.00
2023-02-11T03:51:55.793Z,738.00
2023-02-11T03:52:55.792Z,736.00
2023-02-11T03:53:55.808Z,732.00
2023-02-11T03:54:55.804Z,731.00
2023-02-11T03:55:55.805Z,728.00
2023-02-11T03:56:55.801Z,726.00
2023-02-11T03:57:55.802Z,725.00
2023-02-11T03:58:55.801Z,725.00
2023-02-11T03:59:55.826Z,722.00
2023-02-11T04:00:55.835Z,717.00
2023-02-11T04:01:55.809Z,711.00
2023-02-11T04:02:55.832Z,711.00
2023-02-11T04:03:55.794Z,712.00
2023-02-11T04:04:55.795Z,711.00
2023-02-11T04:05:55.801Z,711.00
2023-02-11T04:06:55.795Z,711.00
2023-02-11T04:07:55.790Z,705.00
2023-02-11T04:08:55.790Z,704.00
2023-02-11T04:09:55.790Z,704.00
2023-02-11T04:10:55.789Z,705.00
2023-02-11T04:11:55.770Z,701.00
2023-02-11T04:12:55.771Z,699.00
2023-02-11T04:13:55.757Z,692.00
2023-02-11T04:14:55.761Z,692.00
2023-02-11T04:15:55.765Z,690.00
2023-02-11T04:16:55.737Z,690.00
2023-02-11T04:17:55.789Z,689.00
2023-02-11T04:18:55.728Z,689.00
2023-02-11T04:19:55.735Z,690.00
2023-02-11T04:20:55.767Z,689.00
2023-02-11T04:21:55.733Z,690.00
2023-02-11T04:22:55.736Z,686.00
2023-02-11T04:23:55.738Z,682.00
2023-02-11T04:24:55.740Z,681.00
2023-02-11T04:25:55.739Z,679.00
2023-02-11T04:26:55.745Z,679.00
2023-02-11T04:27:55.917Z,677.00
2023-02-11T04:28:55.744Z,673.00
2023-02-11T04:29:55.745Z,672.00
2023-02-11T04:30:55.750Z,671.00
2023-02-11T04:31:55.920Z,670.00
2023-02-11T04:32:55.769Z,668.00
2023-02-11T04:33:55.757Z,667.00
2023-02-11T04:34:55.768Z,667.00
2023-02-11T04:35:55.839Z,663.00
2023-02-11T04:36:55.767Z,658.00
2023-02-11T04:37:55.913Z,657.00
2023-02-11T04:38:55.749Z,659.00
2023-02-11T04:39:55.754Z,658.00
2023-02-11T04:40:55.749Z,655.00
2023-02-11T04:41:55.753Z,656.00
2023-02-11T04:42:55.744Z,656.00
2023-02-11T04:43:55.742Z,654.00
2023-02-11T04:44:55.736Z,652.00
2023-02-11T04:45:55.766Z,652.00
2023-02-11T04:46:55.739Z,649.00
2023-02-11T04:47:55.712Z,649.00
2023-02-11T04:48:55.710Z,645.00
2023-02-11T04:49:55.717Z,644.00
2023-02-11T04:50:55.719Z,645.00
2023-02-11T04:51:55.708Z,643.00
2023-02-11T04:52:55.710Z,644.00
2023-02-11T04:53:55.702Z,645.00
2023-02-11T04:54:55.723Z,643.00
2023-02-11T04:55:55.694Z,642.00
2023-02-11T04:56:55.696Z,639.00
2023-02-11T04:57:55.722Z,639.00
2023-02-11T04:58:55.690Z,635.00
2023-02-11T04:59:55.691Z,630.00
2023-02-11T05:00:55.736Z,629.00
2023-02-11T05:01:55.708Z,630.00
2023-02-11T05:02:55.702Z,632.00
2023-02-11T05:03:55.724Z,629.00
2023-02-11T05:04:55.701Z,631.00
2023-02-11T05:05:55.693Z,631.00
2023-02-11T05:06:58.352Z,631.00
2023-02-11T05:07:55.686Z,625.00
2023-02-11T05:08:55.690Z,623.00
2023-02-11T05:09:55.677Z,621.00
2023-02-11T05:10:55.680Z,621.00
2023-02-11T05:11:55.682Z,621.00
2023-02-11T05:12:56.173Z,617.00
2023-02-11T05:13:55.681Z,616.00
2023-02-11T05:14:55.683Z,615.00
2023-02-11T05:15:55.677Z,612.00
2023-02-11T05:16:55.815Z,607.00
2023-02-11T05:17:55.661Z,605.00
2023-02-11T05:18:55.752Z,602.00
2023-02-11T05:19:55.656Z,602.00
2023-02-11T05:20:55.661Z,602.00
2023-02-11T05:22:02.538Z,602.00
2023-02-11T05:22:56.651Z,604.00
2023-02-11T05:23:55.637Z,604.00
2023-02-11T05:24:55.631Z,601.00
2023-02-11T05:25:55.613Z,599.00
2023-02-11T05:26:55.626Z,598.00
2023-02-11T05:27:55.628Z,596.00
2023-02-11T05:28:55.603Z,594.00
2023-02-11T05:29:55.596Z,596.00
2023-02-11T05:30:55.627Z,595.00
2023-02-11T05:31:55.585Z,594.00
2023-02-11T05:32:55.590Z,592.00
2023-02-11T05:33:55.578Z,591.00
2023-02-11T05:34:55.581Z,588.00
2023-02-11T05:35:55.580Z,589.00
2023-02-11T05:36:55.631Z,588.00
2023-02-11T05:37:56.324Z,588.00
2023-02-11T05:38:55.566Z,589.00
2023-02-11T05:39:55.562Z,587.00
2023-02-11T05:40:55.554Z,584.00
2023-02-11T05:41:55.550Z,582.00
2023-02-11T05:42:55.569Z,580.00
2023-02-11T05:43:55.550Z,579.00
2023-02-11T05:44:55.538Z,578.00
2023-02-11T05:45:55.576Z,575.00
2023-02-11T05:46:55.527Z,572.00
2023-02-11T05:47:55.528Z,573.00
2023-02-11T05:48:55.543Z,574.00
2023-02-11T05:49:55.508Z,573.00
2023-02-11T05:50:55.515Z,574.00
2023-02-11T05:51:55.504Z,574.00
2023-02-11T05:52:55.500Z,576.00
2023-02-11T05:53:55.494Z,576.00
2023-02-11T05:54:55.485Z,575.00
2023-02-11T05:55:55.488Z,574.00
2023-02-11T05:56:55.467Z,574.00
2023-02-11T05:57:55.465Z,571.00
2023-02-11T05:58:55.453Z,570.00
2023-02-11T05:59:55.455Z,571.00
2023-02-11T06:00:55.451Z,571.00
2023-02-11T06:01:55.456Z,570.00
2023-02-11T06:02:55.489Z,569.00
2023-02-11T06:03:55.479Z,567.00
2023-02-11T06:04:55.443Z,567.00
2023-02-11T06:05:55.431Z,565.00
2023-02-11T06:06:55.426Z,565.00
2023-02-11T06:07:55.431Z,564.00
2023-02-11T06:08:55.416Z,561.00
2023-02-11T06:09:55.410Z,562.00
2023-02-11T06:10:55.422Z,559.00
2023-02-11T06:11:55.399Z,558.00
2023-02-11T06:12:55.398Z,556.00
2023-02-11T06:13:55.383Z,557.00
2023-02-11T06:14:55.375Z,553.00
2023-02-11T06:15:55.392Z,552.00
2023-02-11T06:16:55.373Z,550.00
2023-02-11T06:17:55.348Z,548.00
2023-02-11T06:18:55.349Z,548.00
2023-02-11T06:19:55.340Z,548.00
2023-02-11T06:20:55.355Z,550.00
2023-02-11T06:21:55.359Z,550.00
2023-02-11T06:22:55.352Z,550.00
2023-02-11T06:23:55.352Z,554.00
2023-02-11T06:25:01.602Z,553.00
2023-02-11T06:25:56.332Z,554.00
2023-02-11T06:26:55.318Z,551.00
2023-02-11T06:27:55.515Z,550.00
2023-02-11T06:28:55.313Z,546.00
2023-02-11T06:29:55.312Z,544.00
2023-02-11T06:30:55.422Z,543.00
2023-02-11T06:31:55.480Z,544.00
2023-02-11T06:32:55.331Z,543.00
2023-02-11T06:33:55.305Z,540.00
2023-02-11T06:34:55.303Z,540.00
2023-02-11T06:35:55.292Z,540.00
2023-02-11T06:36:55.291Z,542.00
2023-02-11T06:37:55.266Z,542.00
2023-02-11T06:38:55.284Z,542.00
2023-02-11T06:39:55.247Z,541.00
2023-02-11T06:40:55.241Z,540.00
2023-02-11T06:41:55.253Z,537.00
2023-02-11T06:42:55.244Z,534.00
2023-02-11T06:43:55.215Z,532.00
2023-02-11T06:44:55.221Z,533.00
2023-02-11T06:45:55.236Z,537.00
2023-02-11T06:46:55.280Z,531.00
2023-02-11T06:47:55.222Z,531.00
2023-02-11T06:48:55.229Z,531.00
2023-02-11T06:49:55.199Z,530.00
2023-02-11T06:50:55.243Z,531.00
2023-02-11T06:51:55.221Z,527.00
2023-02-11T06:52:55.199Z,528.00
2023-02-11T06:53:55.176Z,528.00
2023-02-11T06:54:55.174Z,525.00
2023-02-11T06:55:55.191Z,524.00
2023-02-11T06:56:55.237Z,522.00
2023-02-11T06:57:55.180Z,521.00
2023-02-11T06:58:55.222Z,522.00
2023-02-11T06:59:55.272Z,520.00
2023-02-11T07:00:55.174Z,520.00
2023-02-11T07:01:55.275Z,519.00
2023-02-11T07:02:55.223Z,523.00
2023-02-11T07:03:55.168Z,524.00
2023-02-11T07:04:55.161Z,522.00
2023-02-11T07:05:55.168Z,520.00
2023-02-11T07:06:55.151Z,522.00
2023-02-11T07:07:55.156Z,522.00
2023-02-11T07:08:55.148Z,520.00
2023-02-11T07:09:55.143Z,521.00
2023-02-11T07:10:55.134Z,522.00
2023-02-11T07:11:55.126Z,519.00
2023-02-11T07:12:57.086Z,522.00
2023-02-11T07:13:55.128Z,521.00
2023-02-11T07:14:55.097Z,520.00
2023-02-11T07:15:55.111Z,519.00
2023-02-11T07:16:55.092Z,519.00
2023-02-11T07:17:55.088Z,517.00
2023-02-11T07:18:55.091Z,517.00
2023-02-11T07:19:55.111Z,515.00
2023-02-11T07:20:55.080Z,516.00
2023-02-11T07:21:55.065Z,516.00
2023-02-11T07:22:55.058Z,515.00
2023-02-11T07:23:55.076Z,512.00
2023-02-11T07:24:55.058Z,513.00
2023-02-11T07:25:55.039Z,515.00
2023-02-11T07:26:55.043Z,516.00
2023-02-11T07:27:55.102Z,520.00
2023-02-11T07:28:55.030Z,518.00
2023-02-11T07:29:55.035Z,517.00
2023-02-11T07:30:55.038Z,513.00
2023-02-11T07:31:55.036Z,513.00
2023-02-11T07:32:55.021Z,511.00
2023-02-11T07:33:55.021Z,510.00
2023-02-11T07:34:55.068Z,510.00
2023-02-11T07:35:55.026Z,514.00
2023-02-11T07:36:55.024Z,515.00
2023-02-11T07:37:55.030Z,515.00
2023-02-11T07:38:55.031Z,513.00
2023-02-11T07:39:55.049Z,511.00
2023-02-11T07:40:55.976Z,509.00
2023-02-11T07:41:55.044Z,508.00
2023-02-11T07:42:55.042Z,506.00
2023-02-11T07:43:55.039Z,506.00
2023-02-11T07:44:55.046Z,506.00
2023-02-11T07:45:55.041Z,508.00
2023-02-11T07:46:55.113Z,503.00
2023-02-11T07:47:55.037Z,501.00
2023-02-11T07:48:55.049Z,501.00
2023-02-11T07:49:56.632Z,503.00
2023-02-11T07:50:55.016Z,504.00
2023-02-11T07:51:55.011Z,504.00
2023-02-11T07:52:55.012Z,505.00
2023-02-11T07:53:55.000Z,505.00
2023-02-11T07:54:54.998Z,505.00
2023-02-11T07:55:54.981Z,503.00
2023-02-11T07:56:54.979Z,504.00
2023-02-11T07:57:54.973Z,506.00
2023-02-11T07:58:54.960Z,506.00
2023-02-11T07:59:54.964Z,507.00
2023-02-11T08:00:54.967Z,506.00
2023-02-11T08:01:54.997Z,508.00
2023-02-11T08:02:55.020Z,506.00
2023-02-11T08:03:54.954Z,507.00
2023-02-11T08:04:54.924Z,506.00
2023-02-11T08:05:54.913Z,500.00
2023-02-11T08:06:57.754Z,497.00
2023-02-11T08:07:54.959Z,498.00
2023-02-11T08:08:54.922Z,496.00
2023-02-11T08:09:54.914Z,497.00
2023-02-11T08:10:54.909Z,499.00
2023-02-11T08:11:54.937Z,498.00
2023-02-11T08:12:54.917Z,497.00
2023-02-11T08:13:55.474Z,495.00
2023-02-11T08:14:54.915Z,494.00
2023-02-11T08:15:54.919Z,495.00
2023-02-11T08:16:55.030Z,494.00
2023-02-11T08:18:54.904Z,496.00
2023-02-11T08:19:54.905Z,498.00
2023-02-11T08:20:54.914Z,499.00
2023-02-11T08:21:54.900Z,496.00
2023-02-11T08:22:54.889Z,492.00
2023-02-11T08:23:54.878Z,493.00
2023-02-11T08:24:54.882Z,491.00
2023-02-11T08:25:54.874Z,488.00
2023-02-11T08:26:54.866Z,485.00
2023-02-11T08:27:54.917Z,483.00
2023-02-11T08:28:54.841Z,483.00
2023-02-11T08:29:54.837Z,485.00
2023-02-11T08:30:54.852Z,485.00
2023-02-11T08:31:54.884Z,484.00
2023-02-11T08:32:54.836Z,484.00
2023-02-11T08:33:54.836Z,486.00
2023-02-11T08:34:54.844Z,486.00
2023-02-11T08:35:54.819Z,489.00
2023-02-11T08:36:54.825Z,491.00
2023-02-11T08:37:54.815Z,490.00
2023-02-11T08:38:57.129Z,488.00
2023-02-11T08:39:54.819Z,485.00
2023-02-11T08:40:54.794Z,484.00
2023-02-11T08:41:54.806Z,484.00
2023-02-11T08:42:54.787Z,482.00
2023-02-11T08:43:54.780Z,484.00
2023-02-11T08:44:54.775Z,485.00
2023-02-11T08:45:54.804Z,486.00
2023-02-11T08:46:54.760Z,486.00
2023-02-11T08:47:54.754Z,487.00
2023-02-11T08:48:54.745Z,487.00
2023-02-11T08:49:54.738Z,488.00
2023-02-11T08:50:54.729Z,489.00
2023-02-11T08:51:54.719Z,489.00
2023-02-11T08:52:54.714Z,486.00
2023-02-11T08:53:54.708Z,486.00
2023-02-11T08:54:54.703Z,483.00
2023-02-11T08:55:54.699Z,482.00
2023-02-11T08:56:54.684Z,480.00
2023-02-11T08:57:54.681Z,477.00
2023-02-11T08:58:54.688Z,476.00
2023-02-11T08:59:54.684Z,475.00
2023-02-11T09:00:54.823Z,475.00
2023-02-11T09:01:54.740Z,475.00
2023-02-11T09:02:54.677Z,476.00
2023-02-11T09:03:54.698Z,477.00
2023-02-11T09:04:54.671Z,477.00
2023-02-11T09:05:54.674Z,479.00
2023-02-11T09:06:54.662Z,480.00
2023-02-11T09:07:54.675Z,481.00
2023-02-11T09:08:54.668Z,483.00
2023-02-11T09:09:54.672Z,482.00
2023-02-11T09:10:54.668Z,483.00
2023-02-11T09:11:54.665Z,479.00
2023-02-11T09:12:54.671Z,476.00
2023-02-11T09:13:54.883Z,477.00
2023-02-11T09:14:54.666Z,476.00
2023-02-11T09:15:54.647Z,477.00
2023-02-11T09:16:54.703Z,474.00
2023-02-11T09:17:54.642Z,475.00
2023-02-11T09:18:54.618Z,475.00
2023-02-11T09:19:54.614Z,478.00
2023-02-11T09:20:54.622Z,476.00
2023-02-11T09:21:54.616Z,475.00
2023-02-11T09:22:54.613Z,471.00
2023-02-11T09:23:54.628Z,471.00
2023-02-11T09:24:54.605Z,472.00
2023-02-11T09:25:54.606Z,474.00
2023-02-11T09:26:54.589Z,475.00
2023-02-11T09:27:54.595Z,472.00
2023-02-11T09:28:54.575Z,473.00
2023-02-11T09:29:54.567Z,477.00
2023-02-11T09:30:55.047Z,478.00
2023-02-11T09:31:54.753Z,477.00
2023-02-11T09:32:54.573Z,475.00
2023-02-11T09:33:54.571Z,471.00
2023-02-11T09:34:54.537Z,471.00
2023-02-11T09:35:54.548Z,472.00
2023-02-11T09:36:54.533Z,471.00
2023-02-11T09:37:54.548Z,472.00
2023-02-11T09:38:54.498Z,477.00
2023-02-11T09:39:54.481Z,476.00
2023-02-11T09:40:54.480Z,479.00
2023-02-11T09:41:54.466Z,476.00
2023-02-11T09:42:54.446Z,476.00
2023-02-11T09:43:54.445Z,475.00
2023-02-11T09:44:54.419Z,475.00
2023-02-11T09:45:54.434Z,476.00
2023-02-11T09:46:54.432Z,475.00
2023-02-11T09:47:54.396Z,477.00
2023-02-11T09:48:54.383Z,477.00
2023-02-11T09:49:54.370Z,476.00
2023-02-11T09:50:54.366Z,475.00
2023-02-11T09:51:54.359Z,473.00
2023-02-11T09:52:54.352Z,474.00
2023-02-11T09:53:54.335Z,473.00
2023-02-11T09:54:54.326Z,472.00
2023-02-11T09:55:54.329Z,469.00
2023-02-11T09:56:54.314Z,470.00
2023-02-11T09:57:54.307Z,469.00
2023-02-11T09:58:54.299Z,470.00
2023-02-11T09:59:54.305Z,469.00
2023-02-11T10:00:54.282Z,467.00
2023-02-11T10:01:54.298Z,465.00
2023-02-11T10:02:54.266Z,465.00
2023-02-11T10:03:54.289Z,464.00
2023-02-11T10:04:54.242Z,464.00
2023-02-11T10:05:54.227Z,466.00
2023-02-11T10:06:54.238Z,466.00
2023-02-11T10:07:54.212Z,464.00
2023-02-11T10:08:54.192Z,464.00
2023-02-11T10:09:54.182Z,465.00
2023-02-11T10:10:54.447Z,467.00
2023-02-11T10:11:55.017Z,467.00
2023-02-11T10:12:54.154Z,467.00
2023-02-11T10:13:54.153Z,466.00
2023-02-11T10:14:54.152Z,464.00
2023-02-11T10:15:54.191Z,462.00
2023-02-11T10:16:54.144Z,464.00
2023-02-11T10:17:54.149Z,463.00
2023-02-11T10:18:54.124Z,463.00
2023-02-11T10:19:54.144Z,461.00
2023-02-11T10:20:54.149Z,463.00
2023-02-11T10:21:54.120Z,464.00
2023-02-11T10:22:54.108Z,462.00
2023-02-11T10:23:54.108Z,456.00
2023-02-11T10:24:54.110Z,455.00
2023-02-11T10:25:54.108Z,459.00
2023-02-11T10:26:54.113Z,458.00
2023-02-11T10:27:54.089Z,456.00
2023-02-11T10:28:54.085Z,456.00
2023-02-11T10:29:54.085Z,455.00
2023-02-11T10:30:54.513Z,456.00
2023-02-11T10:31:55.989Z,457.00
2023-02-11T10:32:54.076Z,459.00
2023-02-11T10:33:54.085Z,458.00
2023-02-11T10:34:54.077Z,458.00
2023-02-11T10:35:54.062Z,459.00
2023-02-11T10:36:54.094Z,461.00
2023-02-11T10:37:54.063Z,458.00
2023-02-11T10:38:54.056Z,456.00
2023-02-11T10:39:54.037Z,454.00
2023-02-11T10:40:54.043Z,453.00
2023-02-11T10:41:54.032Z,453.00
2023-02-11T10:42:55.712Z,455.00
2023-02-11T10:43:54.033Z,457.00
2023-02-11T10:44:54.026Z,457.00
2023-02-11T10:45:54.020Z,455.00
2023-02-11T10:46:54.004Z,456.00
2023-02-11T10:47:54.008Z,457.00
2023-02-11T10:48:54.010Z,459.00
2023-02-11T10:49:53.986Z,460.00
2023-02-11T10:50:53.970Z,463.00
2023-02-11T10:51:53.970Z,462.00
2023-02-11T10:52:53.957Z,462.00
2023-02-11T10:53:53.946Z,464.00
2023-02-11T10:54:53.942Z,464.00
2023-02-11T10:55:53.932Z,464.00
2023-02-11T10:56:53.912Z,465.00
2023-02-11T10:57:53.957Z,465.00
2023-02-11T10:58:53.885Z,464.00
2023-02-11T10:59:53.880Z,462.00
2023-02-11T11:00:54.028Z,462.00
2023-02-11T11:01:53.917Z,463.00
2023-02-11T11:02:53.822Z,464.00
2023-02-11T11:03:53.809Z,464.00
2023-02-11T11:04:53.856Z,461.00
2023-02-11T11:05:54.699Z,459.00
2023-02-11T11:06:53.788Z,459.00
2023-02-11T11:07:53.798Z,458.00
2023-02-11T11:08:53.805Z,457.00
2023-02-11T11:09:53.785Z,456.00
2023-02-11T11:10:53.774Z,455.00
2023-02-11T11:11:53.784Z,453.00
2023-02-11T11:12:53.786Z,457.00
2023-02-11T11:13:53.768Z,459.00
2023-02-11T11:14:53.759Z,457.00
2023-02-11T11:15:53.807Z,456.00
2023-02-11T11:16:53.751Z,454.00
2023-02-11T11:17:53.756Z,455.00
2023-02-11T11:18:53.748Z,459.00
2023-02-11T11:19:53.752Z,459.00
2023-02-11T11:20:53.724Z,457.00
2023-02-11T11:21:53.740Z,456.00
2023-02-11T11:22:53.717Z,451.00
2023-02-11T11:23:53.720Z,447.00
2023-02-11T11:24:53.703Z,447.00
2023-02-11T11:25:53.692Z,448.00
2023-02-11T11:26:53.692Z,450.00
2023-02-11T11:27:53.681Z,453.00
2023-02-11T11:28:53.657Z,450.00
2023-02-11T11:29:53.648Z,449.00
2023-02-11T11:30:54.089Z,450.00
2023-02-11T11:31:53.700Z,449.00
2023-02-11T11:32:53.641Z,452.00
2023-02-11T11:33:53.614Z,453.00
2023-02-11T13:08:52.955Z,436.00
2023-02-11T13:09:52.995Z,436.00
2023-02-11T13:10:53.311Z,437.00
2023-02-11T13:11:52.935Z,438.00
2023-02-11T13:12:52.923Z,438.00
2023-02-11T13:13:52.928Z,437.00
2023-02-11T13:14:52.921Z,437.00
2023-02-11T13:15:52.925Z,437.00
2023-02-11T13:16:52.965Z,438.00
2023-02-11T13:17:52.931Z,438.00
2023-02-11T13:18:52.929Z,436.00
2023-02-11T13:19:52.949Z,435.00
2023-02-11T13:20:53.083Z,435.00
2023-02-11T13:21:52.933Z,436.00
2023-02-11T13:22:52.952Z,438.00
2023-02-11T13:23:52.941Z,435.00
2023-02-11T13:24:52.943Z,437.00
2023-02-11T13:25:52.931Z,439.00
2023-02-11T13:26:52.942Z,441.00
2023-02-11T13:27:52.928Z,440.00
2023-02-11T13:28:52.923Z,442.00
2023-02-11T13:29:52.922Z,441.00
2023-02-11T13:30:53.446Z,441.00
2023-02-11T13:31:53.103Z,439.00
2023-02-11T13:32:52.924Z,439.00
2023-02-11T13:33:52.914Z,440.00
2023-02-11T13:34:52.922Z,440.00
2023-02-11T13:35:52.912Z,439.00
2023-02-11T13:36:52.906Z,439.00
2023-02-11T13:37:52.900Z,441.00
2023-02-11T13:38:52.903Z,443.00
2023-02-11T13:39:52.891Z,441.00
2023-02-11T13:40:53.119Z,442.00
2023-02-11T13:41:52.994Z,442.00
2023-02-11T13:42:52.901Z,444.00
2023-02-11T13:43:52.871Z,445.00
2023-02-11T13:44:52.865Z,445.00
2023-02-11T13:45:52.894Z,445.00
2023-02-11T13:46:52.847Z,445.00
2023-02-11T13:47:52.843Z,446.00
2023-02-11T13:48:52.840Z,445.00
2023-02-11T13:49:52.856Z,446.00
2023-02-11T13:50:53.089Z,446.00
2023-02-11T13:51:52.794Z,445.00
2023-02-11T13:52:52.781Z,446.00
2023-02-11T13:53:52.763Z,444.00
2023-02-11T13:54:52.767Z,441.00
2023-02-11T13:55:52.768Z,440.00
2023-02-11T13:56:52.746Z,438.00
2023-02-11T13:57:52.744Z,439.00
2023-02-11T13:58:52.747Z,440.00
2023-02-11T13:59:52.747Z,440.00
2023-02-11T14:00:53.095Z,441.00
2023-02-11T14:01:52.750Z,441.00
2023-02-11T14:02:52.836Z,442.00
2023-02-11T14:03:52.746Z,442.00
2023-02-11T14:04:52.746Z,442.00
2023-02-11T14:05:52.746Z,442.00
2023-02-11T14:06:52.750Z,441.00
2023-02-11T14:07:52.748Z,439.00
2023-02-11T14:08:52.744Z,438.00
2023-02-11T14:09:52.745Z,435.00
2023-02-11T14:10:53.079Z,435.00
2023-02-11T14:11:52.733Z,437.00
2023-02-11T14:12:52.733Z,441.00
2023-02-11T14:13:52.730Z,441.00
2023-02-11T14:14:52.728Z,444.00
2023-02-11T14:15:52.726Z,443.00
2023-02-11T14:16:52.730Z,441.00
2023-02-11T14:17:52.721Z,444.00
2023-02-11T14:18:52.711Z,442.00
2023-02-11T14:19:52.712Z,443.00
2023-02-11T14:20:53.014Z,443.00
2023-02-11T14:21:52.689Z,443.00
2023-02-11T14:22:52.687Z,443.00
2023-02-11T14:23:52.672Z,442.00
2023-02-11T14:24:52.666Z,442.00
2023-02-11T14:25:52.660Z,442.00
2023-02-11T14:26:52.672Z,439.00
2023-02-11T14:27:52.640Z,439.00
2023-02-11T14:28:52.637Z,441.00
2023-02-11T14:29:52.621Z,442.00
2023-02-11T14:30:52.837Z,443.00
2023-02-11T14:31:52.747Z,447.00
2023-02-11T14:32:52.608Z,445.00
2023-02-11T14:33:52.608Z,443.00
2023-02-11T14:34:52.647Z,444.00
2023-02-11T14:35:52.613Z,445.00
2023-02-11T14:36:52.607Z,447.00
2023-02-11T14:37:52.602Z,449.00
2023-02-11T14:38:52.598Z,447.00
2023-02-11T14:39:52.598Z,445.00
2023-02-11T14:40:52.958Z,450.00
2023-02-11T14:41:52.565Z,451.00
2023-02-11T14:42:52.552Z,451.00
2023-02-11T14:43:52.542Z,450.00
2023-02-11T14:44:52.550Z,448.00
2023-02-11T14:45:52.577Z,446.00
2023-02-11T14:46:52.548Z,447.00
2023-02-11T14:47:52.542Z,444.00
2023-02-11T14:48:52.525Z,444.00
2023-02-11T14:49:52.519Z,443.00
2023-02-11T14:50:52.803Z,444.00
2023-02-11T14:51:52.495Z,441.00
2023-02-11T14:52:52.492Z,442.00
2023-02-11T14:53:52.477Z,443.00
2023-02-11T14:54:52.466Z,445.00
2023-02-11T14:55:52.487Z,446.00
2023-02-11T14:56:52.468Z,446.00
2023-02-11T14:57:52.440Z,447.00
2023-02-11T14:58:52.436Z,448.00
2023-02-11T14:59:52.501Z,447.00
2023-02-11T15:00:52.762Z,446.00
2023-02-11T15:01:52.552Z,447.00
2023-02-11T15:02:52.475Z,446.00
2023-02-11T15:03:52.434Z,444.00
2023-02-11T15:04:52.424Z,445.00
2023-02-11T15:05:52.411Z,445.00
2023-02-11T15:06:52.417Z,443.00
2023-02-11T15:07:52.475Z,444.00
2023-02-11T15:08:52.392Z,442.00
2023-02-11T15:09:52.400Z,440.00
2023-02-11T15:10:52.616Z,440.00
2023-02-11T15:11:52.386Z,444.00
2023-02-11T15:12:52.368Z,446.00
2023-02-11T15:13:55.086Z,444.00
2023-02-11T15:14:52.357Z,444.00
2023-02-11T15:15:52.390Z,444.00
2023-02-11T15:16:52.363Z,445.00
2023-02-11T15:17:52.354Z,441.00
2023-02-11T15:18:52.366Z,441.00
2023-02-11T15:19:52.369Z,442.00
2023-02-11T15:20:52.717Z,444.00
2023-02-11T15:21:52.369Z,444.00
2023-02-11T15:22:52.359Z,442.00
2023-02-11T15:23:52.353Z,439.00
2023-02-11T15:24:52.337Z,438.00